createdAt,value
2022-09-17T00:01:39.376Z,11.22
2022-09-17T00:04:06.854Z,11.17
2022-09-17T00:06:36.810Z,11.16
2022-09-17T00:09:06.895Z,11.09
2022-09-17T00:11:37.518Z,11.10
2022-09-17T00:14:07.097Z,11.05
2022-09-17T00:16:42.096Z,11.02
2022-09-17T00:19:15.367Z,11.00
2022-09-17T00:21:43.770Z,10.98
2022-09-17T00:24:13.443Z,10.97
2022-09-17T00:26:41.283Z,10.98
2022-09-17T00:29:08.866Z,10.97
2022-09-17T00:31:37.164Z,10.98
2022-09-17T00:34:06.571Z,10.98
2022-09-17T00:36:38.853Z,10.99
2022-09-17T00:39:06.944Z,10.96
2022-09-17T00:41:36.545Z,10.90
2022-09-17T00:44:42.494Z,10.84
2022-09-17T00:47:33.056Z,10.81
2022-09-17T00:50:10.179Z,10.76
2022-09-17T00:52:47.793Z,10.72
2022-09-17T00:55:22.349Z,10.65
2022-09-17T00:57:52.366Z,10.60
2022-09-17T01:00:20.126Z,10.57
2022-09-17T01:02:47.815Z,10.53
2022-09-17T01:05:16.160Z,10.49
2022-09-17T01:07:57.884Z,10.42
2022-09-17T01:11:05.904Z,10.48
2022-09-17T01:14:02.048Z,10.47
2022-09-17T01:16:41.945Z,10.45
2022-09-17T01:19:33.969Z,10.43
2022-09-17T01:22:09.677Z,10.43
2022-09-17T01:24:51.025Z,10.44
2022-09-17T01:27:30.883Z,10.49
2022-09-17T01:30:16.974Z,10.54
2022-09-17T01:32:52.453Z,10.60
2022-09-17T01:35:47.701Z,10.64
2022-09-17T01:38:20.424Z,10.71
2022-09-17T01:41:09.742Z,10.79
2022-09-17T01:43:56.984Z,10.79
2022-09-17T01:46:37.667Z,10.80
2022-09-17T01:49:07.778Z,10.86
2022-09-17T01:51:42.692Z,10.79
2022-09-17T01:54:26.745Z,10.75
2022-09-17T01:57:05.823Z,10.74
2022-09-17T01:59:39.093Z,10.76
2022-09-17T02:02:17.873Z,10.76
2022-09-17T02:04:54.131Z,10.70
2022-09-17T02:07:25.974Z,10.67
2022-09-17T02:10:07.141Z,10.70
2022-09-17T02:12:41.417Z,10.72
2022-09-17T02:15:13.430Z,10.74
2022-09-17T02:17:50.607Z,10.77
2022-09-17T02:20:22.811Z,10.76
2022-09-17T02:23:02.856Z,10.76
2022-09-17T02:25:39.784Z,10.72
2022-09-17T02:28:15.529Z,10.70
2022-09-17T02:30:43.073Z,10.66
2022-09-17T02:33:15.035Z,10.66
2022-09-17T02:35:43.478Z,10.67
2022-09-17T02:38:11.460Z,10.70
2022-09-17T02:40:49.907Z,10.75
2022-09-17T02:43:32.429Z,10.75
2022-09-17T02:46:10.997Z,10.79
2022-09-17T02:49:40.524Z,10.77
2022-09-17T02:52:19.359Z,10.79
2022-09-17T02:55:07.007Z,10.72
2022-09-17T02:57:42.041Z,10.67
2022-09-17T03:00:21.699Z,10.67
2022-09-17T03:03:07.912Z,10.63
2022-09-17T03:05:37.641Z,10.58
2022-09-17T03:08:08.930Z,10.49
2022-09-17T03:10:36.551Z,10.43
2022-09-17T03:13:04.083Z,10.40
2022-09-17T03:15:31.562Z,10.30
2022-09-17T03:17:58.965Z,10.20
2022-09-17T03:20:26.410Z,10.13
2022-09-17T03:22:53.922Z,10.05
2022-09-17T03:25:21.347Z,10.00
2022-09-17T03:27:48.933Z,9.95
2022-09-17T03:30:16.599Z,9.86
2022-09-17T03:32:44.080Z,9.83
2022-09-17T03:35:11.680Z,9.74
2022-09-17T03:37:39.147Z,9.68
2022-09-17T03:40:07.547Z,9.66
2022-09-17T03:42:35.160Z,9.59
2022-09-17T03:45:02.561Z,9.56
2022-09-17T03:47:30.002Z,9.54
2022-09-17T03:49:57.753Z,9.51
2022-09-17T03:52:25.366Z,9.45
2022-09-17T03:54:52.828Z,9.39
2022-09-17T03:57:20.253Z,9.38
2022-09-17T03:59:47.718Z,9.36
2022-09-17T04:02:15.317Z,9.42
2022-09-17T04:04:42.895Z,9.51
2022-09-17T04:07:10.561Z,9.47
2022-09-17T04:09:38.098Z,9.48
2022-09-17T04:12:05.582Z,9.48
2022-09-17T04:14:33.026Z,9.47
2022-09-17T04:17:00.539Z,9.49
2022-09-17T04:19:28.220Z,9.38
2022-09-17T04:21:55.637Z,9.41
2022-09-17T04:24:23.103Z,9.36
2022-09-17T04:26:50.558Z,9.31
2022-09-17T04:29:18.238Z,9.28
2022-09-17T04:31:45.740Z,9.26
2022-09-17T04:34:13.343Z,9.19
2022-09-17T04:36:40.779Z,9.14
2022-09-17T04:39:08.174Z,9.12
2022-09-17T04:41:35.770Z,9.11
2022-09-17T04:44:03.397Z,9.06
2022-09-17T04:46:31.012Z,9.00
2022-09-17T04:48:59.044Z,8.96
2022-09-17T04:51:26.548Z,8.99
2022-09-17T04:53:54.181Z,8.98
2022-09-17T04:56:21.679Z,8.97
2022-09-17T04:58:49.561Z,8.91
2022-09-17T05:01:18.743Z,9.02
2022-09-17T05:03:47.191Z,9.04
2022-09-17T05:06:14.845Z,9.04
2022-09-17T05:08:42.279Z,9.07
2022-09-17T05:11:09.681Z,9.11
2022-09-17T05:13:37.115Z,9.15
2022-09-17T05:16:04.624Z,9.18
2022-09-17T05:18:32.182Z,9.21
2022-09-17T05:20:59.616Z,9.30
2022-09-17T05:23:27.062Z,9.35
2022-09-17T05:26:00.024Z,9.43
2022-09-17T05:28:28.842Z,9.50
2022-09-17T05:30:59.663Z,9.61
2022-09-17T05:33:27.470Z,9.70
2022-09-17T05:35:54.952Z,9.72
2022-09-17T05:38:22.742Z,9.74
2022-09-17T05:40:50.550Z,9.81
2022-09-17T05:43:18.584Z,9.88
2022-09-17T05:45:46.666Z,9.97
2022-09-17T05:48:16.131Z,9.99
2022-09-17T05:50:43.933Z,9.95
2022-09-17T05:53:13.562Z,9.97
2022-09-17T05:55:41.478Z,9.98
2022-09-17T05:58:16.353Z,9.98
2022-09-17T06:00:44.223Z,9.94
2022-09-17T06:03:12.696Z,9.94
2022-09-17T06:05:40.811Z,9.90
2022-09-17T06:08:09.303Z,9.92
2022-09-17T06:10:38.530Z,9.82
2022-09-17T06:13:06.528Z,9.95
2022-09-17T06:15:34.009Z,9.92
2022-09-17T06:18:01.473Z,9.93
2022-09-17T06:20:29.043Z,9.89
2022-09-17T06:22:59.930Z,9.97
2022-09-17T06:25:27.480Z,10.03
2022-09-17T06:27:54.934Z,10.00
2022-09-17T06:30:22.387Z,10.02
2022-09-17T06:32:49.849Z,10.08
2022-09-17T06:35:20.460Z,10.14
2022-09-17T06:37:48.699Z,10.20
2022-09-17T06:40:16.330Z,10.25
2022-09-17T06:42:43.841Z,10.25
2022-09-17T06:45:16.365Z,10.27
2022-09-17T06:47:44.283Z,10.38
2022-09-17T06:50:11.872Z,10.48
2022-09-17T06:52:39.649Z,10.51
2022-09-17T06:55:07.344Z,10.63
2022-09-17T06:57:34.787Z,10.74
2022-09-17T07:00:02.430Z,10.92
2022-09-17T07:02:29.934Z,11.08
2022-09-17T07:04:57.531Z,11.15
2022-09-17T07:07:24.993Z,11.04
2022-09-17T07:09:53.647Z,11.06
2022-09-17T07:12:22.126Z,11.13
2022-09-17T07:14:49.791Z,11.16
2022-09-17T07:17:17.355Z,11.18
2022-09-17T07:19:44.777Z,11.24
2022-09-17T07:22:13.953Z,11.36
2022-09-17T07:24:41.419Z,11.52
2022-09-17T07:27:08.949Z,11.67
2022-09-17T07:29:36.737Z,11.88
2022-09-17T07:32:04.218Z,12.12
2022-09-17T07:34:31.718Z,12.26
2022-09-17T07:36:59.350Z,12.22
2022-09-17T07:39:26.842Z,12.30
2022-09-17T07:41:54.323Z,12.48
2022-09-17T07:44:22.145Z,12.62
2022-09-17T07:46:49.882Z,12.71
2022-09-17T07:49:17.527Z,12.92
2022-09-17T07:51:44.989Z,13.10
2022-09-17T07:54:12.434Z,13.25
2022-09-17T07:56:39.929Z,13.37
2022-09-17T07:59:07.446Z,13.58
2022-09-17T08:01:36.435Z,13.64
2022-09-17T08:04:05.116Z,13.64
2022-09-17T08:06:32.878Z,13.44
2022-09-17T08:09:01.198Z,13.42
2022-09-17T08:14:18.028Z,13.67
2022-09-17T08:16:47.206Z,13.92
2022-09-17T08:19:18.120Z,14.07
2022-09-17T08:21:45.797Z,14.13
2022-09-17T08:24:13.251Z,14.20
2022-09-17T08:26:41.438Z,14.23
2022-09-17T08:29:08.993Z,14.36
2022-09-17T08:31:36.995Z,14.07
2022-09-17T08:34:09.500Z,13.82
2022-09-17T08:36:37.566Z,13.41
2022-09-17T08:39:05.214Z,13.04
2022-09-17T08:41:45.512Z,12.54
2022-09-17T08:44:28.891Z,12.14
2022-09-17T08:47:06.462Z,11.68
2022-09-17T08:49:39.179Z,11.53
2022-09-17T08:52:31.314Z,11.70
2022-09-17T08:55:17.646Z,12.06
2022-09-17T08:58:03.279Z,12.88
2022-09-17T09:00:38.967Z,13.07
2022-09-17T09:03:26.260Z,13.04
2022-09-17T09:05:54.339Z,12.97
2022-09-17T09:08:24.798Z,12.92
2022-09-17T09:11:01.430Z,12.82
2022-09-17T09:13:36.427Z,12.66
2022-09-17T09:16:15.857Z,12.56
2022-09-17T09:18:43.398Z,12.36
2022-09-17T09:21:30.633Z,12.56
2022-09-17T09:24:19.123Z,12.82
2022-09-17T09:26:51.803Z,13.27
2022-09-17T09:29:28.811Z,13.76
2022-09-17T09:32:18.320Z,14.26
2022-09-17T09:34:49.497Z,14.97
2022-09-17T09:37:22.734Z,15.13
2022-09-17T09:39:53.961Z,15.32
2022-09-17T09:42:31.863Z,15.66
2022-09-17T09:45:29.504Z,16.20
2022-09-17T09:48:37.760Z,16.34
2022-09-17T09:51:26.297Z,16.57
2022-09-17T09:54:04.339Z,16.56
2022-09-17T09:57:03.575Z,16.55
2022-09-17T09:59:31.067Z,16.80
2022-09-17T10:01:58.703Z,16.35
2022-09-17T10:04:28.854Z,16.51
2022-09-17T10:07:16.616Z,15.95
2022-09-17T10:09:47.325Z,15.62
2022-09-17T10:12:14.875Z,14.97
2022-09-17T10:14:44.855Z,15.02
2022-09-17T10:17:19.300Z,14.91
2022-09-17T10:20:07.013Z,15.25
2022-09-17T10:22:40.502Z,15.68
2022-09-17T10:25:22.285Z,16.01
2022-09-17T10:27:50.618Z,16.21
2022-09-17T10:30:19.717Z,16.42
2022-09-17T10:33:19.076Z,16.65
2022-09-17T10:35:58.485Z,16.80
2022-09-17T10:38:38.035Z,16.98
2022-09-17T10:41:19.348Z,16.99
2022-09-17T10:43:47.018Z,17.31
2022-09-17T10:46:33.962Z,17.50
2022-09-17T10:49:12.975Z,16.99
2022-09-17T10:51:40.627Z,16.94
2022-09-17T10:54:14.160Z,17.51
2022-09-17T10:56:46.855Z,17.59
2022-09-17T10:59:46.360Z,17.11
2022-09-17T11:02:55.517Z,17.78
2022-09-17T11:05:53.687Z,17.92
2022-09-17T11:08:45.948Z,18.42
2022-09-17T11:11:33.361Z,18.15
2022-09-17T11:14:18.351Z,17.65
2022-09-17T11:17:10.719Z,17.29
2022-09-17T11:19:53.580Z,17.25
2022-09-17T11:22:54.949Z,17.55
2022-09-17T11:26:12.592Z,17.45
2022-09-17T11:29:28.775Z,17.28
2022-09-17T11:32:43.002Z,18.36
2022-09-17T11:35:17.973Z,18.78
2022-09-17T11:38:00.195Z,17.82
2022-09-17T11:40:38.686Z,17.79
2022-09-17T11:43:27.628Z,17.91
2022-09-17T11:46:25.617Z,18.50
2022-09-17T11:49:02.888Z,18.09
2022-09-17T11:51:37.286Z,17.91
2022-09-17T11:54:28.354Z,18.38
2022-09-17T11:57:09.702Z,18.51
2022-09-17T11:59:56.074Z,18.47
2022-09-17T12:02:27.128Z,18.25
2022-09-17T12:05:03.155Z,17.74
2022-09-17T12:08:14.421Z,17.61
2022-09-17T12:10:50.971Z,16.75
2022-09-17T12:13:31.404Z,16.09
2022-09-17T12:16:10.578Z,15.69
2022-09-17T12:18:53.123Z,16.04
2022-09-17T12:21:33.898Z,16.78
2022-09-17T12:24:14.567Z,17.08
2022-09-17T12:27:03.922Z,17.48
2022-09-17T12:29:55.954Z,17.57
2022-09-17T12:32:38.105Z,18.61
2022-09-17T12:35:22.621Z,18.37
2022-09-17T12:37:58.991Z,17.98
2022-09-17T12:40:52.190Z,17.37
2022-09-17T12:43:44.539Z,17.03
2022-09-17T12:46:25.994Z,16.73
2022-09-17T12:49:44.807Z,16.78
2022-09-17T12:52:33.693Z,17.56
2022-09-17T12:55:20.248Z,18.01
2022-09-17T12:58:16.555Z,18.18
2022-09-17T13:00:50.300Z,18.69
2022-09-17T13:03:30.993Z,18.70
2022-09-17T13:06:35.827Z,19.14
2022-09-17T13:09:12.505Z,19.10
2022-09-17T13:11:49.130Z,18.45
2022-09-17T13:14:21.779Z,18.32
2022-09-17T13:17:24.181Z,18.51
2022-09-17T13:19:58.835Z,18.53
2022-09-17T13:22:30.418Z,18.32
2022-09-17T13:25:10.255Z,18.22
2022-09-17T13:27:39.165Z,17.80
2022-09-17T13:30:08.529Z,17.48
2022-09-17T13:32:35.914Z,17.65
2022-09-17T13:35:09.841Z,17.83
2022-09-17T13:37:41.378Z,17.42
2022-09-17T13:40:36.083Z,17.66
2022-09-17T13:43:03.624Z,17.16
2022-09-17T13:45:32.928Z,17.33
2022-09-17T13:48:11.809Z,17.45
2022-09-17T13:50:41.713Z,17.40
2022-09-17T13:53:15.314Z,17.11
2022-09-17T13:55:46.013Z,17.04
2022-09-17T13:58:22.875Z,17.01
2022-09-17T14:01:10.782Z,16.63
2022-09-17T14:03:41.973Z,16.82
2022-09-17T14:06:09.474Z,16.87
2022-09-17T14:08:46.750Z,17.10
2022-09-17T14:11:26.893Z,17.16
2022-09-17T14:14:04.383Z,17.03
2022-09-17T14:16:35.687Z,16.97
2022-09-17T14:19:41.017Z,17.11
2022-09-17T14:22:08.401Z,17.07
2022-09-17T14:24:45.010Z,16.52
2022-09-17T14:27:54.887Z,15.95
2022-09-17T14:30:23.259Z,15.81
2022-09-17T14:32:50.635Z,15.71
2022-09-17T14:35:38.404Z,15.80
2022-09-17T14:38:15.148Z,15.18
2022-09-17T14:40:48.291Z,15.12
2022-09-17T14:43:43.318Z,15.02
2022-09-17T14:46:23.915Z,14.87
2022-09-17T14:48:51.804Z,14.98
2022-09-17T14:51:19.270Z,14.77
2022-09-17T14:53:48.103Z,14.84
2022-09-17T14:56:22.160Z,14.92
2022-09-17T14:58:55.515Z,15.15
2022-09-17T15:01:24.947Z,15.33
2022-09-17T15:04:11.912Z,15.36
2022-09-17T15:06:40.352Z,15.35
2022-09-17T15:09:15.493Z,15.45
2022-09-17T15:11:45.706Z,15.35
2022-09-17T15:14:19.582Z,15.22
2022-09-17T15:16:53.670Z,15.34
2022-09-17T15:19:35.999Z,15.35
2022-09-17T15:22:11.177Z,15.56
2022-09-17T15:24:50.185Z,15.48
2022-09-17T15:27:25.728Z,15.54
2022-09-17T15:30:03.182Z,15.66
2022-09-17T15:32:31.871Z,15.75
2022-09-17T15:35:14.760Z,15.65
2022-09-17T15:38:21.231Z,15.68
2022-09-17T15:40:44.208Z,15.57
2022-09-17T15:43:34.843Z,15.70
2022-09-17T15:46:23.160Z,15.75
2022-09-17T15:48:50.834Z,15.76
2022-09-17T15:51:28.979Z,15.48
2022-09-17T15:54:09.398Z,15.43
2022-09-17T15:56:42.204Z,15.35
2022-09-17T15:59:27.652Z,15.33
2022-09-17T16:01:57.588Z,15.20
2022-09-17T16:04:36.212Z,15.07
2022-09-17T16:07:12.786Z,14.86
2022-09-17T16:09:48.986Z,14.97
2022-09-17T16:12:19.629Z,14.94
2022-09-17T16:14:49.303Z,14.97
2022-09-17T16:17:36.555Z,14.98
2022-09-17T16:20:12.923Z,14.93
2022-09-17T16:22:40.689Z,14.78
2022-09-17T16:25:08.876Z,14.56
2022-09-17T16:27:49.984Z,14.37
2022-09-17T16:30:20.183Z,13.99
2022-09-17T16:32:48.307Z,13.24
2022-09-17T16:35:17.906Z,12.80
2022-09-17T16:37:49.257Z,12.49
2022-09-17T16:40:16.893Z,12.00
2022-09-17T16:42:44.417Z,11.90
2022-09-17T16:45:12.689Z,11.73
2022-09-17T16:47:42.196Z,11.53
2022-09-17T16:50:13.034Z,11.43
2022-09-17T16:52:40.535Z,11.20
2022-09-17T16:55:09.050Z,11.05
2022-09-17T16:57:36.525Z,11.06
2022-09-17T17:00:06.716Z,10.95
2022-09-17T17:02:34.205Z,10.97
2022-09-17T17:05:01.702Z,10.94
2022-09-17T17:07:29.180Z,10.92
2022-09-17T17:09:56.664Z,10.87
2022-09-17T17:12:24.115Z,10.80
2022-09-17T17:14:52.572Z,10.86
2022-09-17T17:17:21.205Z,10.77
2022-09-17T17:19:49.077Z,10.80
2022-09-17T17:22:17.061Z,10.82
2022-09-17T17:24:44.666Z,10.79
2022-09-17T17:27:13.902Z,10.86
2022-09-17T17:29:41.618Z,10.90
2022-09-17T17:32:09.708Z,10.87
2022-09-17T17:34:37.168Z,10.93
2022-09-17T17:37:04.768Z,10.88
2022-09-17T17:39:32.246Z,10.91
2022-09-17T17:41:59.750Z,10.79
2022-09-17T17:44:27.254Z,10.92
2022-09-17T17:46:54.808Z,10.91
2022-09-17T17:49:22.391Z,10.89
2022-09-17T17:51:49.926Z,10.90
2022-09-17T17:54:17.479Z,10.92
2022-09-17T17:56:44.939Z,10.90
2022-09-17T17:59:12.489Z,10.91
2022-09-17T18:01:40.035Z,10.94
2022-09-17T18:04:08.468Z,10.92
2022-09-17T18:06:35.896Z,10.94
2022-09-17T18:09:04.788Z,10.94
2022-09-17T18:11:32.640Z,10.90
2022-09-17T18:14:01.934Z,10.88
2022-09-17T18:16:30.394Z,10.83
2022-09-17T18:18:58.631Z,10.89
2022-09-17T18:21:26.892Z,10.89
2022-09-17T18:23:54.710Z,10.87
2022-09-17T18:26:24.899Z,10.83
2022-09-17T18:28:53.925Z,10.85
2022-09-17T18:31:27.845Z,10.87
2022-09-17T18:34:02.574Z,10.83
2022-09-17T18:36:32.280Z,10.83
2022-09-17T18:39:53.263Z,10.84
2022-09-17T18:41:49.801Z,10.81
2022-09-17T18:44:18.951Z,10.76
2022-09-17T18:46:47.911Z,10.67
2022-09-17T18:49:15.663Z,10.63
2022-09-17T18:51:43.233Z,10.60
2022-09-17T18:54:12.631Z,10.55
2022-09-17T18:56:41.390Z,10.53
2022-09-17T18:59:09.376Z,10.46
2022-09-17T19:01:36.992Z,10.44
2022-09-17T19:04:07.528Z,10.44
2022-09-17T19:06:35.416Z,10.45
2022-09-17T19:09:04.630Z,10.39
2022-09-17T19:11:32.183Z,10.38
2022-09-17T19:13:59.623Z,10.45
2022-09-17T19:16:27.183Z,10.49
2022-09-17T19:18:54.851Z,10.52
2022-09-17T19:21:22.513Z,10.57
2022-09-17T19:23:52.466Z,10.59
2022-09-17T19:26:23.065Z,10.60
2022-09-17T19:28:58.515Z,10.57
2022-09-17T19:31:26.464Z,10.62
2022-09-17T19:33:54.259Z,10.60
2022-09-17T19:36:22.254Z,10.59
2022-09-17T19:38:50.218Z,10.56
2022-09-17T19:41:20.414Z,10.57
2022-09-17T19:43:48.359Z,10.55
2022-09-17T19:46:18.727Z,10.55
2022-09-17T19:48:48.219Z,10.55
2022-09-17T19:51:16.832Z,10.57
2022-09-17T19:53:44.664Z,10.61
2022-09-17T19:56:17.339Z,10.64
2022-09-17T19:58:45.388Z,10.69
2022-09-17T20:01:13.500Z,10.64
2022-09-17T20:03:42.608Z,10.78
2022-09-17T20:06:18.209Z,10.82
2022-09-17T20:08:47.350Z,10.85
2022-09-17T20:11:16.908Z,10.82
2022-09-17T20:13:44.787Z,10.82
2022-09-17T20:16:15.702Z,10.82
2022-09-17T20:18:44.757Z,10.79
2022-09-17T20:21:31.261Z,10.73
2022-09-17T20:23:59.721Z,10.74
2022-09-17T20:26:29.413Z,10.76
2022-09-17T20:28:57.069Z,10.67
2022-09-17T20:31:27.502Z,10.56
2022-09-17T20:33:57.923Z,10.66
2022-09-17T20:36:30.691Z,10.63
2022-09-17T20:39:21.071Z,10.57
2022-09-17T20:41:46.222Z,10.54
2022-09-17T20:44:13.677Z,10.54
2022-09-17T20:46:41.243Z,10.55
2022-09-17T20:49:08.815Z,10.58
2022-09-17T20:51:36.486Z,10.57
2022-09-17T20:54:04.097Z,10.60
2022-09-17T20:56:34.620Z,10.66
2022-09-17T20:59:14.334Z,10.69
2022-09-17T21:01:44.829Z,10.71
2022-09-17T21:04:14.729Z,10.78
2022-09-17T21:06:44.314Z,10.80
2022-09-17T21:09:16.055Z,10.87
2022-09-17T21:11:45.850Z,10.90
2022-09-17T21:14:15.669Z,10.93
2022-09-17T21:16:43.246Z,10.93
2022-09-17T21:19:13.374Z,10.93
2022-09-17T21:21:40.843Z,10.97
2022-09-17T21:24:10.405Z,10.95
2022-09-17T21:26:38.242Z,10.97
2022-09-17T21:29:05.976Z,10.92
2022-09-17T21:31:36.557Z,10.93
2022-09-17T21:34:07.230Z,10.92
2022-09-17T21:36:37.816Z,10.97
2022-09-17T21:39:12.527Z,10.93
2022-09-17T21:41:42.509Z,10.94
2022-09-17T21:44:13.886Z,10.91
2022-09-17T21:46:42.772Z,10.95
2022-09-17T21:49:11.015Z,10.90
2022-09-17T21:51:40.642Z,10.87
2022-09-17T21:54:16.900Z,10.87
2022-09-17T21:56:45.720Z,10.86
2022-09-17T21:59:15.379Z,10.89
2022-09-17T22:01:47.004Z,10.87
2022-09-17T22:04:20.067Z,10.88
2022-09-17T22:06:49.000Z,10.88
2022-09-17T22:09:22.543Z,10.89
2022-09-17T22:11:51.012Z,10.91
2022-09-17T22:14:23.945Z,10.93
2022-09-17T22:16:54.084Z,10.93
2022-09-17T22:19:23.714Z,10.95
2022-09-17T22:21:54.031Z,10.95
2022-09-17T22:24:22.895Z,10.95
2022-09-17T22:26:56.865Z,10.95
2022-09-17T22:29:26.525Z,10.93
2022-09-17T22:31:54.101Z,10.85
2022-09-17T22:34:23.238Z,10.85
2022-09-17T22:36:51.366Z,10.84
2022-09-17T22:39:21.960Z,10.84
2022-09-17T22:41:50.503Z,10.81
2022-09-17T22:44:20.203Z,10.81
2022-09-17T22:46:50.131Z,10.80
2022-09-17T22:49:18.681Z,10.82
2022-09-17T22:51:47.551Z,10.84
2022-09-17T22:54:18.502Z,10.86
2022-09-17T22:56:47.608Z,10.90
2022-09-17T22:59:15.358Z,10.92
2022-09-17T23:01:43.415Z,10.90
2022-09-17T23:04:11.018Z,10.92
2022-09-17T23:06:42.022Z,10.94
2022-09-17T23:09:09.627Z,10.87
2022-09-17T23:11:39.898Z,10.94
2022-09-17T23:14:11.073Z,10.93
2022-09-17T23:16:44.392Z,10.92
2022-09-17T23:19:12.658Z,10.92
2022-09-17T23:21:40.964Z,10.87
2022-09-17T23:24:09.214Z,10.88
2022-09-17T23:26:36.835Z,10.89
2022-09-17T23:29:05.823Z,10.94
2022-09-17T23:31:35.749Z,10.95
2022-09-17T23:34:04.679Z,10.93
2022-09-17T23:36:35.038Z,10.93
2022-09-17T23:39:03.270Z,10.94
2022-09-17T23:41:33.490Z,10.96
2022-09-17T23:44:04.103Z,10.94
2022-09-17T23:46:34.413Z,10.91
2022-09-17T23:49:02.605Z,10.91
2022-09-17T23:51:31.698Z,10.88
2022-09-17T23:54:00.331Z,10.91
2022-09-17T23:56:29.375Z,10.86
2022-09-17T23:59:00.486Z,10.83
